sensor_id;sensor_type;location;lat;lon;timestamp;pressure;altitude;pressure_sealevel;temperature;humidity
55914;BME280;58179;48.776;9.124;2023-05-17T00:01:29;97695.53;;;6.94;100.00
55914;BME280;58179;48.776;9.124;2023-05-17T00:03:56;97695.19;;;6.90;100.00
55914;BME280;58179;48.776;9.124;2023-05-17T00:06:22;97692.97;;;6.87;100.00
55914;BME280;58179;48.776;9.124;2023-05-17T00:08:49;97698.09;;;6.82;100.00
55914;BME280;58179;48.776;9.124;2023-05-17T00:11:15;97699.94;;;6.82;100.00
55914;BME280;58179;48.776;9.124;2023-05-17T00:13:45;97700.56;;;6.77;100.00
55914;BME280;58179;48.776;9.124;2023-05-17T00:16:11;97705.81;;;6.77;100.00
55914;BME280;58179;48.776;9.124;2023-05-17T00:18:37;97713.59;;;6.72;100.00
55914;BME280;58179;48.776;9.124;2023-05-17T00:21:03;97704.34;;;6.63;100.00
55914;BME280;58179;48.776;9.124;2023-05-17T00:23:29;97711.22;;;6.64;100.00
55914;BME280;58179;48.776;9.124;2023-05-17T00:25:55;97710.28;;;6.58;100.00
55914;BME280;58179;48.776;9.124;2023-05-17T00:28:21;97713.13;;;6.57;100.00
55914;BME280;58179;48.776;9.124;2023-05-17T00:30:48;97717.78;;;6.55;100.00
55914;BME280;58179;48.776;9.124;2023-05-17T00:33:14;97721.88;;;6.51;100.00
55914;BME280;58179;48.776;9.124;2023-05-17T00:35:39;97725.13;;;6.53;100.00
55914;BME280;58179;48.776;9.124;2023-05-17T00:38:05;97724.38;;;6.46;100.00
55914;BME280;58179;48.776;9.124;2023-05-17T00:40:33;97728.00;;;6.45;100.00
55914;BME280;58179;48.776;9.124;2023-05-17T00:42:58;97725.75;;;6.48;100.00
55914;BME280;58179;48.776;9.124;2023-05-17T00:45:24;97727.41;;;6.43;100.00
55914;BME280;58179;48.776;9.124;2023-05-17T00:47:52;97736.97;;;6.37;100.00
55914;BME280;58179;48.776;9.124;2023-05-17T00:50:18;97734.50;;;6.42;100.00
55914;BME280;58179;48.776;9.124;2023-05-17T00:52:45;97735.97;;;6.38;100.00
55914;BME280;58179;48.776;9.124;2023-05-17T00:55:11;97736.97;;;6.37;100.00
55914;BME280;58179;48.776;9.124;2023-05-17T00:57:37;97739.00;;;6.35;100.00
55914;BME280;58179;48.776;9.124;2023-05-17T01:00:05;97734.19;;;6.32;100.00
55914;BME280;58179;48.776;9.124;2023-05-17T01:02:32;97734.56;;;6.36;100.00
55914;BME280;58179;48.776;9.124;2023-05-17T01:04:59;97734.50;;;6.42;100.00
55914;BME280;58179;48.776;9.124;2023-05-17T01:07:26;97737.94;;;6.43;100.00
55914;BME280;58179;48.776;9.124;2023-05-17T01:09:52;97740.72;;;6.48;100.00
55914;BME280;58179;48.776;9.124;2023-05-17T01:12:30;97739.09;;;6.47;100.00
55914;BME280;58179;48.776;9.124;2023-05-17T01:15:12;97744.00;;;6.43;100.00
55914;BME280;58179;48.776;9.124;2023-05-17T01:17:49;97749.06;;;6.45;100.00
55914;BME280;58179;48.776;9.124;2023-05-17T01:20:22;97753.72;;;6.43;100.00
55914;BME280;58179;48.776;9.124;2023-05-17T01:23:07;97753.72;;;6.43;100.00
55914;BME280;58179;48.776;9.124;2023-05-17T01:25:48;97756.19;;;6.38;100.00
55914;BME280;58179;48.776;9.124;2023-05-17T01:28:19;97758.59;;;6.39;100.00
55914;BME280;58179;48.776;9.124;2023-05-17T01:30:46;97752.56;;;6.39;100.00
55914;BME280;58179;48.776;9.124;2023-05-17T01:33:15;97753.72;;;6.43;100.00
55914;BME280;58179;48.776;9.124;2023-05-17T01:35:41;97752.56;;;6.39;100.00
55914;BME280;58179;48.776;9.124;2023-05-17T01:38:07;97761.06;;;6.34;100.00
55914;BME280;58179;48.776;9.124;2023-05-17T01:40:35;97756.81;;;6.33;100.00
55914;BME280;58179;48.776;9.124;2023-05-17T01:43:13;97747.91;;;6.34;100.00
55914;BME280;58179;48.776;9.124;2023-05-17T01:45:52;97756.81;;;6.33;100.00
55914;BME280;58179;48.776;9.124;2023-05-17T01:48:30;97755.38;;;6.37;100.00
55914;BME280;58179;48.776;9.124;2023-05-17T01:50:58;97746.09;;;6.35;100.00
55914;BME280;58179;48.776;9.124;2023-05-17T01:53:29;97758.44;;;6.34;100.00
55914;BME280;58179;48.776;9.124;2023-05-17T01:56:04;97755.19;;;6.39;100.00
55914;BME280;58179;48.776;9.124;2023-05-17T01:58:45;97756.34;;;6.43;100.00
55914;BME280;58179;48.776;9.124;2023-05-17T02:01:15;97760.00;;;6.42;100.00
55914;BME280;58179;48.776;9.124;2023-05-17T02:03:43;97759.84;;;6.37;100.00
55914;BME280;58179;48.776;9.124;2023-05-17T02:06:12;97761.66;;;6.36;100.00
55914;BME280;58179;48.776;9.124;2023-05-17T02:08:38;97767.72;;;6.37;100.00
55914;BME280;58179;48.776;9.124;2023-05-17T02:11:04;97767.34;;;6.33;100.00
55914;BME280;58179;48.776;9.124;2023-05-17T02:13:30;97767.34;;;6.33;100.00
55914;BME280;58179;48.776;9.124;2023-05-17T02:15:59;97775.44;;;6.32;100.00
55914;BME280;58179;48.776;9.124;2023-05-17T02:18:27;97773.19;;;6.35;100.00
55914;BME280;58179;48.776;9.124;2023-05-17T02:20:53;97776.91;;;6.28;100.00
55914;BME280;58179;48.776;9.124;2023-05-17T02:23:19;97777.91;;;6.27;100.00
55914;BME280;58179;48.776;9.124;2023-05-17T02:25:47;97779.94;;;6.25;100.00
55914;BME280;58179;48.776;9.124;2023-05-17T02:28:13;97781.41;;;6.20;100.00
55914;BME280;58179;48.776;9.124;2023-05-17T02:30:39;97789.28;;;6.20;100.00
55914;BME280;58179;48.776;9.124;2023-05-17T02:33:09;97781.25;;;6.15;100.00
55914;BME280;58179;48.776;9.124;2023-05-17T02:35:36;97784.47;;;6.11;100.00
55914;BME280;58179;48.776;9.124;2023-05-17T02:38:02;97786.53;;;6.09;100.00
55914;BME280;58179;48.776;9.124;2023-05-17T02:40:28;97782.88;;;6.10;100.00
55914;BME280;58179;48.776;9.124;2023-05-17T02:42:54;97778.06;;;6.07;100.00
55914;BME280;58179;48.776;9.124;2023-05-17T02:45:20;97780.94;;;5.99;100.00
55914;BME280;58179;48.776;9.124;2023-05-17T02:47:46;97779.31;;;5.98;100.00
55914;BME280;58179;48.776;9.124;2023-05-17T02:50:12;97777.34;;;5.93;100.00
55914;BME280;58179;48.776;9.124;2023-05-17T02:52:39;97780.19;;;5.92;100.00
55914;BME280;58179;48.776;9.124;2023-05-17T02:55:06;97782.41;;;5.88;100.00
55914;BME280;58179;48.776;9.124;2023-05-17T02:57:32;97785.44;;;5.85;100.00
55914;BME280;58179;48.776;9.124;2023-05-17T02:59:58;97789.50;;;5.81;100.00
55914;BME280;58179;48.776;9.124;2023-05-17T03:02:24;97783.47;;;5.74;100.00
55914;BME280;58179;48.776;9.124;2023-05-17T03:04:49;97780.84;;;5.74;100.00
55914;BME280;58179;48.776;9.124;2023-05-17T03:07:15;97785.50;;;5.72;100.00
55914;BME280;58179;48.776;9.124;2023-05-17T03:09:43;97789.97;;;5.65;100.00
55914;BME280;58179;48.776;9.124;2023-05-17T03:12:09;97796.50;;;5.56;100.00
55914;BME280;58179;48.776;9.124;2023-05-17T03:14:35;97790.22;;;5.57;100.00
55914;BME280;58179;48.776;9.124;2023-05-17T03:17:00;97795.91;;;5.54;100.00
55914;BME280;58179;48.776;9.124;2023-05-17T03:19:26;97795.72;;;5.49;100.00
55914;BME280;58179;48.776;9.124;2023-05-17T03:21:52;97788.09;;;5.40;100.00
55914;BME280;58179;48.776;9.124;2023-05-17T03:24:18;97797.34;;;5.43;100.00
55914;BME280;58179;48.776;9.124;2023-05-17T03:26:45;97799.78;;;5.38;100.00
55914;BME280;58179;48.776;9.124;2023-05-17T03:29:11;97803.84;;;5.27;100.00
55914;BME280;58179;48.776;9.124;2023-05-17T03:31:37;97803.28;;;5.25;100.00
55914;BME280;58179;48.776;9.124;2023-05-17T03:34:03;97799.84;;;5.25;100.00
55914;BME280;58179;48.776;9.124;2023-05-17T03:36:29;97804.06;;;5.19;100.00
55914;BME280;58179;48.776;9.124;2023-05-17T03:38:56;97806.31;;;5.16;100.00
55914;BME280;58179;48.776;9.124;2023-05-17T03:41:22;97811.59;;;5.09;100.00
55914;BME280;58179;48.776;9.124;2023-05-17T03:43:49;97815.22;;;5.08;100.00
55914;BME280;58179;48.776;9.124;2023-05-17T03:46:15;97816.84;;;5.02;100.00
55914;BME280;58179;48.776;9.124;2023-05-17T03:48:41;97805.16;;;4.98;100.00
55914;BME280;58179;48.776;9.124;2023-05-17T03:51:07;97818.47;;;4.97;100.00
55914;BME280;58179;48.776;9.124;2023-05-17T03:53:34;97816.84;;;5.02;100.00
55914;BME280;58179;48.776;9.124;2023-05-17T03:56:05;97820.28;;;4.96;100.00
55914;BME280;58179;48.776;9.124;2023-05-17T03:58:32;97817.28;;;4.93;100.00
55914;BME280;58179;48.776;9.124;2023-05-17T04:00:59;97817.47;;;4.91;100.00
55914;BME280;58179;48.776;9.124;2023-05-17T04:03:25;97828.16;;;4.96;100.00
55914;BME280;58179;48.776;9.124;2023-05-17T04:05:52;97825.34;;;4.91;100.00
55914;BME280;58179;48.776;9.124;2023-05-17T04:08:18;97826.16;;;4.92;100.00
55914;BME280;58179;48.776;9.124;2023-05-17T04:10:44;97823.91;;;4.89;100.00
55914;BME280;58179;48.776;9.124;2023-05-17T04:13:10;97829.97;;;4.89;100.00
55914;BME280;58179;48.776;9.124;2023-05-17T04:15:36;97831.19;;;4.93;100.00
55914;BME280;58179;48.776;9.124;2023-05-17T04:18:05;97833.81;;;5.00;100.00
55914;BME280;58179;48.776;9.124;2023-05-17T04:20:31;97835.41;;;5.01;100.00
55914;BME280;58179;48.776;9.124;2023-05-17T04:22:57;97848.53;;;5.01;100.00
55914;BME280;58179;48.776;9.124;2023-05-17T04:25:24;97843.28;;;5.01;100.00
55914;BME280;58179;48.776;9.124;2023-05-17T04:27:50;97850.34;;;5.07;100.00
55914;BME280;58179;48.776;9.124;2023-05-17T04:30:17;97855.38;;;5.09;100.00
55914;BME280;58179;48.776;9.124;2023-05-17T04:32:43;97855.38;;;5.15;100.00
55914;BME280;58179;48.776;9.124;2023-05-17T04:35:11;97858.59;;;5.17;100.00
55914;BME280;58179;48.776;9.124;2023-05-17T04:37:37;97857.19;;;5.21;100.00
55914;BME280;58179;48.776;9.124;2023-05-17T04:40:06;97854.75;;;5.33;100.00
55914;BME280;58179;48.776;9.124;2023-05-17T04:42:34;97855.56;;;5.33;100.00
55914;BME280;58179;48.776;9.124;2023-05-17T04:45:00;97865.63;;;5.36;100.00
55914;BME280;58179;48.776;9.124;2023-05-17T04:47:26;97874.47;;;5.42;100.00
55914;BME280;58179;48.776;9.124;2023-05-17T04:49:52;97860.72;;;5.53;100.00
55914;BME280;58179;48.776;9.124;2023-05-17T04:52:21;97873.22;;;5.58;100.00
55914;BME280;58179;48.776;9.124;2023-05-17T04:54:47;97868.38;;;5.61;100.00
55914;BME280;58179;48.776;9.124;2023-05-17T04:57:12;97872.81;;;5.67;100.00
55914;BME280;58179;48.776;9.124;2023-05-17T04:59:39;97875.84;;;5.71;100.00
55914;BME280;58179;48.776;9.124;2023-05-17T05:02:05;97873.38;;;5.76;100.00
55914;BME280;58179;48.776;9.124;2023-05-17T05:04:31;97879.81;;;5.80;100.00
55914;BME280;58179;48.776;9.124;2023-05-17T05:06:57;97888.31;;;5.82;100.00
55914;BME280;58179;48.776;9.124;2023-05-17T05:09:24;97890.53;;;5.85;100.00
55914;BME280;58179;48.776;9.124;2023-05-17T05:11:50;97886.47;;;5.89;100.00
55914;BME280;58179;48.776;9.124;2023-05-17T05:14:16;97896.16;;;5.95;100.00
55914;BME280;58179;48.776;9.124;2023-05-17T05:16:42;97893.94;;;5.99;100.00
55914;BME280;58179;48.776;9.124;2023-05-17T05:19:07;97897.31;;;6.06;100.00
55914;BME280;58179;48.776;9.124;2023-05-17T05:21:35;97900.94;;;6.11;100.00
55914;BME280;58179;48.776;9.124;2023-05-17T05:24:02;97905.94;;;6.19;100.00
55914;BME280;58179;48.776;9.124;2023-05-17T05:26:30;97904.91;;;6.27;100.00
55914;BME280;58179;48.776;9.124;2023-05-17T05:28:56;97904.84;;;6.34;100.00
55914;BME280;58179;48.776;9.124;2023-05-17T05:31:22;97916.94;;;6.41;100.00
55914;BME280;58179;48.776;9.124;2023-05-17T05:33:48;97919.53;;;6.48;100.00
55914;BME280;58179;48.776;9.124;2023-05-17T05:36:14;97915.03;;;6.55;100.00
55914;BME280;58179;48.776;9.124;2023-05-17T05:38:40;97912.38;;;6.61;100.00
55914;BME280;58179;48.776;9.124;2023-05-17T05:41:06;97918.84;;;6.66;100.00
55914;BME280;58179;48.776;9.124;2023-05-17T05:43:33;97926.06;;;6.70;100.00
55914;BME280;58179;48.776;9.124;2023-05-17T05:46:00;97923.63;;;6.75;100.00
55914;BME280;58179;48.776;9.124;2023-05-17T05:48:26;97926.22;;;6.82;100.00
55914;BME280;58179;48.776;9.124;2023-05-17T05:50:52;97921.91;;;6.87;100.00
55914;BME280;58179;48.776;9.124;2023-05-17T05:53:18;97932.81;;;6.91;100.00
55914;BME280;58179;48.776;9.124;2023-05-17T05:55:44;97940.06;;;6.95;100.00
55914;BME280;58179;48.776;9.124;2023-05-17T05:58:10;97930.72;;;6.99;100.00
55914;BME280;58179;48.776;9.124;2023-05-17T06:00:38;97939.59;;;7.05;100.00
55914;BME280;58179;48.776;9.124;2023-05-17T06:03:04;97944.81;;;7.12;100.00
55914;BME280;58179;48.776;9.124;2023-05-17T06:05:30;97944.97;;;7.17;100.00
55914;BME280;58179;48.776;9.124;2023-05-17T06:07:56;97948.34;;;7.24;100.00
55914;BME280;58179;48.776;9.124;2023-05-17T06:10:22;97945.28;;;7.27;100.00
55914;BME280;58179;48.776;9.124;2023-05-17T06:12:49;97959.81;;;7.29;100.00
55914;BME280;58179;48.776;9.124;2023-05-17T06:15:15;97955.75;;;7.33;100.00
55914;BME280;58179;48.776;9.124;2023-05-17T06:17:42;97960.38;;;7.38;100.00
55914;BME280;58179;48.776;9.124;2023-05-17T06:20:09;97954.88;;;7.39;100.00
55914;BME280;58179;48.776;9.124;2023-05-17T06:22:35;97962.56;;;7.41;100.00
55914;BME280;58179;48.776;9.124;2023-05-17T06:25:01;97963.75;;;7.45;100.00
55914;BME280;58179;48.776;9.124;2023-05-17T06:27:27;97965.56;;;7.45;100.00
55914;BME280;58179;48.776;9.124;2023-05-17T06:29:53;97967.78;;;7.48;100.00
55914;BME280;58179;48.776;9.124;2023-05-17T06:32:19;97969.59;;;7.47;100.00
55914;BME280;58179;48.776;9.124;2023-05-17T06:34:46;97971.44;;;7.47;100.00
55914;BME280;58179;48.776;9.124;2023-05-17T06:37:12;97961.91;;;7.46;100.00
55914;BME280;58179;48.776;9.124;2023-05-17T06:39:38;97967.19;;;7.46;100.00
55914;BME280;58179;48.776;9.124;2023-05-17T06:42:04;97977.50;;;7.47;100.00
55914;BME280;58179;48.776;9.124;2023-05-17T06:44:30;97969.53;;;7.54;100.00
55914;BME280;58179;48.776;9.124;2023-05-17T06:46:56;97978.03;;;7.56;100.00
55914;BME280;58179;48.776;9.124;2023-05-17T06:49:22;97970.28;;;7.61;100.00
55914;BME280;58179;48.776;9.124;2023-05-17T06:51:50;97973.31;;;7.64;100.00
55914;BME280;58179;48.776;9.124;2023-05-17T06:54:16;97972.03;;;7.67;100.00
55914;BME280;58179;48.776;9.124;2023-05-17T06:56:44;97970.81;;;7.69;100.00
55914;BME280;58179;48.776;9.124;2023-05-17T06:59:10;97975.44;;;7.74;100.00
55914;BME280;58179;48.776;9.124;2023-05-17T07:01:36;97974.78;;;7.78;100.00
55914;BME280;58179;48.776;9.124;2023-05-17T07:04:02;97968.63;;;7.85;100.00
55914;BME280;58179;48.776;9.124;2023-05-17T07:06:27;97966.50;;;7.93;100.00
55914;BME280;58179;48.776;9.124;2023-05-17T07:08:55;97976.31;;;8.04;100.00
55914;BME280;58179;48.776;9.124;2023-05-17T07:11:21;97973.16;;;8.14;100.00
55914;BME280;58179;48.776;9.124;2023-05-17T07:13:49;97973.09;;;8.21;100.00
55914;BME280;58179;48.776;9.124;2023-05-17T07:16:16;97969.34;;;8.28;100.00
55914;BME280;58179;48.776;9.124;2023-05-17T07:18:42;97972.50;;;8.37;100.00
55914;BME280;58179;48.776;9.124;2023-05-17T07:21:08;97969.44;;;8.40;100.00
55914;BME280;58179;48.776;9.124;2023-05-17T07:23:34;97969.88;;;8.37;100.00
55914;BME280;58179;48.776;9.124;2023-05-17T07:26:01;97975.06;;;8.43;100.00
55914;BME280;58179;48.776;9.124;2023-05-17T07:28:27;97973.75;;;8.52;100.00
55914;BME280;58179;48.776;9.124;2023-05-17T07:30:56;97970.09;;;8.65;100.00
55914;BME280;58179;48.776;9.124;2023-05-17T07:33:23;97981.97;;;8.74;100.00
55914;BME280;58179;48.776;9.124;2023-05-17T07:35:49;97980.84;;;8.82;100.00
55914;BME280;58179;48.776;9.124;2023-05-17T07:38:16;97980.09;;;8.93;100.00
55914;BME280;58179;48.776;9.124;2023-05-17T07:40:41;97976.66;;;9.04;100.00
55914;BME280;58179;48.776;9.124;2023-05-17T07:43:09;97984.72;;;9.09;100.00
55914;BME280;58179;48.776;9.124;2023-05-17T07:45:35;97983.59;;;9.17;100.00
55914;BME280;58179;48.776;9.124;2023-05-17T07:48:00;97988.06;;;9.28;100.00
55914;BME280;58179;48.776;9.124;2023-05-17T07:50:26;97982.22;;;9.38;100.00
55914;BME280;58179;48.776;9.124;2023-05-17T07:52:52;97985.09;;;9.48;100.00
55914;BME280;58179;48.776;9.124;2023-05-17T07:55:18;97982.38;;;9.54;100.00
55914;BME280;58179;48.776;9.124;2023-05-17T07:57:45;97987.19;;;9.57;100.00
55914;BME280;58179;48.776;9.124;2023-05-17T08:00:15;97985.81;;;9.66;100.00
55914;BME280;58179;48.776;9.124;2023-05-17T08:02:44;97989.13;;;9.74;100.00
55914;BME280;58179;48.776;9.124;2023-05-17T08:05:10;97985.69;;;9.85;100.00
55914;BME280;58179;48.776;9.124;2023-05-17T08:07:36;97987.97;;;9.93;100.00
55914;BME280;58179;48.776;9.124;2023-05-17T08:10:05;97989.69;;;9.99;100.00
55914;BME280;58179;48.776;9.124;2023-05-17T08:12:31;97984.72;;;10.02;100.00
55914;BME280;58179;48.776;9.124;2023-05-17T08:14:57;97996.13;;;10.15;100.00
55914;BME280;58179;48.776;9.124;2023-05-17T08:17:24;97996.22;;;10.08;100.00
55914;BME280;58179;48.776;9.124;2023-05-17T08:19:50;97992.44;;;10.04;100.00
55914;BME280;58179;48.776;9.124;2023-05-17T08:22:16;97989.44;;;10.00;100.00
55914;BME280;58179;48.776;9.124;2023-05-17T08:24:42;97989.69;;;9.99;100.00
55914;BME280;58179;48.776;9.124;2023-05-17T08:27:11;97985.75;;;10.13;100.00
55914;BME280;58179;48.776;9.124;2023-05-17T08:29:37;97989.22;;;10.14;100.00
55914;BME280;58179;48.776;9.124;2023-05-17T08:32:04;97989.00;;;10.55;100.00
55914;BME280;58179;48.776;9.124;2023-05-17T08:34:31;97990.97;;;10.48;100.00
55914;BME280;58179;48.776;9.124;2023-05-17T08:36:57;97986.94;;;10.57;100.00
55914;BME280;58179;48.776;9.124;2023-05-17T08:39:23;97993.47;;;10.66;100.00
55914;BME280;58179;48.776;9.124;2023-05-17T08:41:49;97987.94;;;10.84;100.00
55914;BME280;58179;48.776;9.124;2023-05-17T08:44:15;97989.22;;;11.10;100.00
55914;BME280;58179;48.776;9.124;2023-05-17T08:46:42;97986.97;;;11.19;100.00
55914;BME280;58179;48.776;9.124;2023-05-17T08:49:09;97992.44;;;11.46;100.00
55914;BME280;58179;48.776;9.124;2023-05-17T08:51:44;97992.66;;;11.61;100.00
55914;BME280;58179;48.776;9.124;2023-05-17T08:54:11;97990.50;;;11.75;100.00
55914;BME280;58179;48.776;9.124;2023-05-17T08:56:38;97985.31;;;11.80;100.00
55914;BME280;58179;48.776;9.124;2023-05-17T08:59:08;97980.78;;;11.80;100.00
55914;BME280;58179;48.776;9.124;2023-05-17T09:01:35;97987.94;;;11.80;100.00
55914;BME280;58179;48.776;9.124;2023-05-17T09:04:03;97987.03;;;11.91;100.00
55914;BME280;58179;48.776;9.124;2023-05-17T09:06:29;97985.06;;;12.03;100.00
55914;BME280;58179;48.776;9.124;2023-05-17T09:08:58;97978.28;;;12.34;100.00
55914;BME280;58179;48.776;9.124;2023-05-17T09:11:27;97982.00;;;12.55;100.00
55914;BME280;58179;48.776;9.124;2023-05-17T09:13:57;97991.38;;;12.40;97.89
55914;BME280;58179;48.776;9.124;2023-05-17T09:16:24;97997.00;;;12.44;99.49
55914;BME280;58179;48.776;9.124;2023-05-17T09:18:55;98001.84;;;12.47;99.91
55914;BME280;58179;48.776;9.124;2023-05-17T09:21:22;98002.06;;;12.46;98.51
55914;BME280;58179;48.776;9.124;2023-05-17T09:23:49;98006.44;;;12.57;99.67
55914;BME280;58179;48.776;9.124;2023-05-17T09:26:17;97983.91;;;12.59;96.82
55914;BME280;58179;48.776;9.124;2023-05-17T09:28:43;97999.16;;;12.69;95.57
55914;BME280;58179;48.776;9.124;2023-05-17T09:31:10;97992.41;;;12.83;96.98
55914;BME280;58179;48.776;9.124;2023-05-17T09:33:44;97994.59;;;12.91;96.66
55914;BME280;58179;48.776;9.124;2023-05-17T09:36:17;97989.09;;;12.98;93.87
55914;BME280;58179;48.776;9.124;2023-05-17T09:38:52;97992.50;;;13.20;94.79
55914;BME280;58179;48.776;9.124;2023-05-17T09:41:20;97994.41;;;13.25;89.68
55914;BME280;58179;48.776;9.124;2023-05-17T09:43:47;97990.41;;;13.22;88.94
55914;BME280;58179;48.776;9.124;2023-05-17T09:46:13;97997.84;;;13.25;88.66
55914;BME280;58179;48.776;9.124;2023-05-17T09:48:40;97997.16;;;13.35;89.63
55914;BME280;58179;48.776;9.124;2023-05-17T09:51:10;97995.91;;;14.31;88.28
55914;BME280;58179;48.776;9.124;2023-05-17T09:53:36;97993.72;;;14.81;78.14
55914;BME280;58179;48.776;9.124;2023-05-17T09:56:09;97991.63;;;15.13;77.20
55914;BME280;58179;48.776;9.124;2023-05-17T09:58:37;97995.94;;;15.70;71.18
55914;BME280;58179;48.776;9.124;2023-05-17T10:01:05;97985.72;;;16.02;69.25
55914;BME280;58179;48.776;9.124;2023-05-17T10:03:33;97983.06;;;15.97;66.93
55914;BME280;58179;48.776;9.124;2023-05-17T10:06:02;97991.94;;;15.67;65.85
55914;BME280;58179;48.776;9.124;2023-05-17T10:08:31;97986.31;;;15.59;69.17
55914;BME280;58179;48.776;9.124;2023-05-17T10:11:01;97983.66;;;15.33;66.69
55914;BME280;58179;48.776;9.124;2023-05-17T10:13:33;97978.00;;;14.94;65.72
55914;BME280;58179;48.776;9.124;2023-05-17T10:16:02;97986.69;;;14.49;72.58
55914;BME280;58179;48.776;9.124;2023-05-17T10:18:30;97995.31;;;14.19;70.51
55914;BME280;58179;48.776;9.124;2023-05-17T10:20:56;97993.72;;;14.23;74.54
55914;BME280;58179;48.776;9.124;2023-05-17T10:23:23;98003.31;;;14.24;72.99
55914;BME280;58179;48.776;9.124;2023-05-17T10:25:51;97991.25;;;14.07;70.09
55914;BME280;58179;48.776;9.124;2023-05-17T10:28:19;97996.38;;;14.13;70.99
55914;BME280;58179;48.776;9.124;2023-05-17T10:30:46;98000.75;;;13.92;69.94
55914;BME280;58179;48.776;9.124;2023-05-17T10:33:14;97997.50;;;13.85;71.95
55914;BME280;58179;48.776;9.124;2023-05-17T10:35:43;97988.31;;;14.03;74.18
55914;BME280;58179;48.776;9.124;2023-05-17T10:38:10;97982.75;;;14.10;70.93
55914;BME280;58179;48.776;9.124;2023-05-17T10:40:37;97998.69;;;14.57;76.79
55914;BME280;58179;48.776;9.124;2023-05-17T10:43:04;97987.06;;;14.93;70.39
55914;BME280;58179;48.776;9.124;2023-05-17T10:45:31;97990.84;;;15.33;73.27
55914;BME280;58179;48.776;9.124;2023-05-17T10:48:03;97989.78;;;15.69;74.01
55914;BME280;58179;48.776;9.124;2023-05-17T10:50:31;97992.16;;;15.81;73.75
55914;BME280;58179;48.776;9.124;2023-05-17T10:52:58;97994.53;;;15.98;70.37
55914;BME280;58179;48.776;9.124;2023-05-17T10:55:38;97990.00;;;15.98;67.40
55914;BME280;58179;48.776;9.124;2023-05-17T10:58:16;97994.31;;;15.84;65.63
55914;BME280;58179;48.776;9.124;2023-05-17T11:00:45;97995.31;;;16.03;65.37
55914;BME280;58179;48.776;9.124;2023-05-17T11:03:17;97990.25;;;16.02;66.79
55914;BME280;58179;48.776;9.124;2023-05-17T11:06:16;97994.97;;;16.35;68.37
55914;BME280;58179;48.776;9.124;2023-05-17T11:09:06;97996.25;;;16.48;68.60
55914;BME280;58179;48.776;9.124;2023-05-17T11:11:33;97991.25;;;16.26;64.93
55914;BME280;58179;48.776;9.124;2023-05-17T11:14:03;97992.84;;;16.27;65.14
55914;BME280;58179;48.776;9.124;2023-05-17T11:16:35;97994.50;;;16.23;66.20
55914;BME280;58179;48.776;9.124;2023-05-17T11:19:08;97994.50;;;16.13;66.57
55914;BME280;58179;48.776;9.124;2023-05-17T11:21:43;97993.94;;;16.21;66.47
55914;BME280;58179;48.776;9.124;2023-05-17T11:24:12;97989.97;;;16.13;65.56
55914;BME280;58179;48.776;9.124;2023-05-17T11:26:44;97983.63;;;15.84;61.26
55914;BME280;58179;48.776;9.124;2023-05-17T11:29:11;97990.28;;;15.92;65.01
55914;BME280;58179;48.776;9.124;2023-05-17T11:31:43;97983.31;;;16.06;63.91
55914;BME280;58179;48.776;9.124;2023-05-17T11:34:10;97980.94;;;15.99;62.54
55914;BME280;58179;48.776;9.124;2023-05-17T11:36:50;97979.56;;;16.02;67.01
55914;BME280;58179;48.776;9.124;2023-05-17T11:39:19;97983.09;;;15.92;67.13
55914;BME280;58179;48.776;9.124;2023-05-17T11:41:50;97970.03;;;15.70;64.84
55914;BME280;58179;48.776;9.124;2023-05-17T11:44:22;97989.78;;;15.44;67.72
55914;BME280;58179;48.776;9.124;2023-05-17T11:46:59;97994.50;;;14.81;65.65
55914;BME280;58179;48.776;9.124;2023-05-17T11:49:28;97987.81;;;14.68;66.60
55914;BME280;58179;48.776;9.124;2023-05-17T11:51:57;97992.53;;;14.46;68.44
55914;BME280;58179;48.776;9.124;2023-05-17T11:54:24;97994.13;;;14.52;67.85
55914;BME280;58179;48.776;9.124;2023-05-17T11:56:51;97987.25;;;14.61;68.62
55914;BME280;58179;48.776;9.124;2023-05-17T11:59:18;97976.38;;;14.83;67.33
55914;BME280;58179;48.776;9.124;2023-05-17T12:01:45;97981.22;;;15.06;68.47
55914;BME280;58179;48.776;9.124;2023-05-17T12:04:12;97983.09;;;15.06;65.93
55914;BME280;58179;48.776;9.124;2023-05-17T12:06:38;97979.38;;;15.37;69.44
55914;BME280;58179;48.776;9.124;2023-05-17T12:09:06;97994.56;;;15.52;67.46
55914;BME280;58179;48.776;9.124;2023-05-17T12:11:35;97990.34;;;15.61;66.44
55914;BME280;58179;48.776;9.124;2023-05-17T12:14:04;97993.78;;;15.82;65.98
55914;BME280;58179;48.776;9.124;2023-05-17T12:16:31;97994.84;;;15.81;63.42
55914;BME280;58179;48.776;9.124;2023-05-17T12:18:58;97992.88;;;16.17;63.07
55914;BME280;58179;48.776;9.124;2023-05-17T12:21:24;97989.91;;;16.39;64.71
55914;BME280;58179;48.776;9.124;2023-05-17T12:23:51;97995.41;;;16.62;63.03
55914;BME280;58179;48.776;9.124;2023-05-17T12:26:21;97978.66;;;16.96;59.73
55914;BME280;58179;48.776;9.124;2023-05-17T12:28:53;97971.22;;;16.88;61.07
55914;BME280;58179;48.776;9.124;2023-05-17T12:31:28;97986.72;;;16.91;60.88
55914;BME280;58179;48.776;9.124;2023-05-17T12:33:56;97977.94;;;16.80;60.19
55914;BME280;58179;48.776;9.124;2023-05-17T12:36:23;97973.84;;;17.32;60.76
55914;BME280;58179;48.776;9.124;2023-05-17T12:38:52;97962.13;;;17.57;59.64
55914;BME280;58179;48.776;9.124;2023-05-17T12:41:21;97962.44;;;18.08;59.99
55914;BME280;58179;48.776;9.124;2023-05-17T12:43:50;97958.41;;;18.34;55.91
55914;BME280;58179;48.776;9.124;2023-05-17T12:46:22;97963.16;;;18.37;53.91
55914;BME280;58179;48.776;9.124;2023-05-17T12:48:50;97967.69;;;18.18;57.40
55914;BME280;58179;48.776;9.124;2023-05-17T12:51:18;97975.16;;;17.34;58.32
55914;BME280;58179;48.776;9.124;2023-05-17T12:53:49;97966.91;;;17.65;59.81
55914;BME280;58179;48.776;9.124;2023-05-17T12:56:17;97967.13;;;17.68;56.54
55914;BME280;58179;48.776;9.124;2023-05-17T12:59:05;97962.69;;;17.83;59.78
55914;BME280;58179;48.776;9.124;2023-05-17T13:01:39;97972.84;;;17.86;57.63
55914;BME280;58179;48.776;9.124;2023-05-17T13:04:06;97971.28;;;18.08;56.95